createdAt,value
2024-01-17T00:02:50.224Z,1.27
2024-01-17T00:05:52.250Z,1.40
2024-01-17T00:08:54.342Z,1.20
2024-01-17T00:11:56.469Z,1.17
2024-01-17T00:14:58.758Z,1.57
2024-01-17T00:18:01.270Z,1.47
2024-01-17T00:21:04.780Z,1.33
2024-01-17T00:24:07.028Z,1.00
2024-01-17T00:27:09.824Z,0.90
2024-01-17T00:30:13.623Z,1.53
2024-01-17T00:33:19.367Z,1.20
2024-01-17T00:36:21.613Z,1.67
2024-01-17T00:39:24.203Z,1.13
2024-01-17T00:42:27.803Z,1.23
2024-01-17T00:45:30.291Z,1.10
2024-01-17T00:48:32.738Z,1.50
2024-01-17T00:51:35.076Z,1.77
2024-01-17T00:54:37.162Z,1.77
2024-01-17T00:57:39.146Z,1.10
2024-01-17T01:00:41.092Z,1.70
2024-01-17T01:03:43.193Z,1.30
2024-01-17T01:06:45.155Z,0.83
2024-01-17T01:09:47.107Z,1.37
2024-01-17T01:12:49.097Z,1.30
2024-01-17T01:15:51.092Z,1.33
2024-01-17T01:18:53.126Z,1.13
2024-01-17T01:21:55.216Z,1.30
2024-01-17T01:24:57.137Z,1.10
2024-01-17T01:27:59.104Z,0.80
2024-01-17T01:31:01.149Z,1.40
2024-01-17T01:34:03.319Z,1.13
2024-01-17T01:37:05.460Z,1.40
2024-01-17T01:40:11.290Z,1.10
2024-01-17T01:43:23.393Z,1.30
2024-01-17T01:46:30.523Z,1.40
2024-01-17T01:49:32.577Z,0.87
2024-01-17T01:52:35.984Z,1.27
2024-01-17T01:55:37.975Z,0.90
2024-01-17T01:58:41.435Z,1.23
2024-01-17T02:01:43.389Z,1.10
2024-01-17T02:04:45.596Z,1.20
2024-01-17T02:07:49.574Z,1.40
2024-01-17T02:10:51.613Z,1.20
2024-01-17T02:13:53.750Z,1.20
2024-01-17T02:16:56.199Z,0.87
2024-01-17T02:19:58.397Z,1.10
2024-01-17T02:23:00.490Z,0.93
2024-01-17T02:26:02.557Z,0.83
2024-01-17T02:29:04.726Z,1.00
2024-01-17T02:32:07.306Z,0.90
2024-01-17T02:35:09.805Z,1.30
2024-01-17T02:38:11.750Z,1.10
2024-01-17T02:41:13.840Z,1.17
2024-01-17T02:44:15.834Z,1.37
2024-01-17T02:47:18.040Z,1.10
2024-01-17T02:50:20.221Z,1.10
2024-01-17T02:53:22.219Z,0.90
2024-01-17T02:56:24.295Z,1.20
2024-01-17T02:59:27.058Z,1.10
2024-01-17T03:02:29.162Z,0.90
2024-01-17T03:05:31.272Z,1.00
2024-01-17T03:08:33.978Z,1.50
2024-01-17T03:11:36.073Z,1.13
2024-01-17T03:14:38.294Z,1.10
2024-01-17T03:17:41.397Z,1.00
2024-01-17T03:20:44.267Z,1.20
2024-01-17T03:23:46.432Z,1.60
2024-01-17T03:26:48.548Z,1.30
2024-01-17T03:29:50.632Z,1.40
2024-01-17T03:32:53.240Z,1.10
2024-01-17T03:35:55.359Z,0.90
2024-01-17T03:38:57.545Z,1.00
2024-01-17T03:42:00.007Z,0.70
2024-01-17T03:45:02.168Z,1.00
2024-01-17T03:48:06.199Z,1.00
2024-01-17T03:51:12.026Z,0.80
2024-01-17T03:54:14.097Z,1.10
2024-01-17T03:57:16.968Z,1.10
2024-01-17T04:00:19.181Z,0.90
2024-01-17T04:03:21.467Z,1.30
2024-01-17T04:06:24.462Z,1.20
2024-01-17T04:09:26.473Z,0.80
2024-01-17T04:12:28.707Z,0.90
2024-01-17T04:15:30.720Z,1.47
2024-01-17T04:18:33.671Z,1.10
2024-01-17T04:21:36.775Z,1.27
2024-01-17T04:24:39.760Z,2.23
2024-01-17T04:27:42.170Z,4.80
2024-01-17T04:30:46.170Z,4.97
2024-01-17T04:33:48.430Z,4.83
2024-01-17T04:36:50.553Z,3.30
2024-01-17T04:39:52.585Z,1.20
2024-01-17T04:42:55.064Z,1.10
2024-01-17T04:45:57.046Z,1.20
2024-01-17T04:49:00.453Z,1.30
2024-01-17T04:52:02.539Z,1.50
2024-01-17T04:55:05.495Z,1.63
2024-01-17T04:58:07.533Z,1.60
2024-01-17T05:01:12.535Z,1.20
2024-01-17T05:04:14.668Z,1.33
2024-01-17T05:07:16.746Z,0.70
2024-01-17T05:10:19.138Z,1.30
2024-01-17T05:13:21.116Z,1.20
2024-01-17T05:16:23.535Z,1.10
2024-01-17T05:19:25.929Z,1.40
2024-01-17T05:22:28.046Z,1.27
2024-01-17T05:25:32.434Z,0.90
2024-01-17T05:28:34.627Z,1.60
2024-01-17T05:31:36.696Z,1.30
2024-01-17T05:34:38.934Z,1.30
2024-01-17T05:37:44.630Z,1.20
2024-01-17T05:40:46.772Z,0.80
2024-01-17T05:43:49.833Z,1.10
2024-01-17T05:46:52.083Z,1.30
2024-01-17T05:49:54.714Z,1.57
2024-01-17T05:52:56.786Z,1.73
2024-01-17T05:56:02.200Z,1.40
2024-01-17T05:59:05.736Z,1.57
2024-01-17T06:02:07.836Z,0.90
2024-01-17T06:05:10.457Z,1.80
2024-01-17T06:08:12.657Z,1.40
2024-01-17T06:11:14.615Z,1.00
2024-01-17T06:14:16.815Z,1.10
2024-01-17T06:17:18.966Z,1.33
2024-01-17T06:20:21.295Z,1.40
2024-01-17T06:23:23.370Z,1.40
2024-01-17T06:26:25.359Z,1.10
2024-01-17T06:29:27.824Z,1.00
2024-01-17T06:32:30.022Z,0.97
2024-01-17T06:35:32.467Z,1.30
2024-01-17T06:38:34.572Z,1.27
2024-01-17T06:41:36.598Z,1.00
2024-01-17T06:44:38.755Z,0.80
2024-01-17T06:47:40.970Z,1.37
2024-01-17T06:50:43.056Z,1.00
2024-01-17T06:53:45.056Z,1.83
2024-01-17T06:56:47.169Z,2.07
2024-01-17T06:59:49.988Z,2.20
2024-01-17T07:02:52.057Z,2.53
2024-01-17T07:05:54.525Z,1.50
2024-01-17T07:08:56.661Z,1.53
2024-01-17T07:12:00.842Z,1.30
2024-01-17T07:15:05.313Z,1.27
2024-01-17T07:18:09.684Z,1.03
2024-01-17T07:21:11.812Z,1.07
2024-01-17T07:24:14.141Z,1.50
2024-01-17T07:27:16.607Z,0.90
2024-01-17T07:30:18.624Z,0.87
2024-01-17T07:33:20.794Z,0.77
2024-01-17T07:36:23.339Z,1.30
2024-01-17T07:39:25.758Z,1.20
2024-01-17T07:42:29.886Z,1.30
2024-01-17T07:45:32.304Z,0.90
2024-01-17T07:48:35.116Z,1.20
2024-01-17T07:51:37.250Z,1.07
2024-01-17T07:54:40.243Z,0.87
2024-01-17T07:57:47.748Z,2.00
2024-01-17T08:00:50.238Z,0.97
2024-01-17T08:03:52.476Z,1.90
2024-01-17T08:06:54.694Z,1.40
2024-01-17T08:09:59.603Z,3.03
2024-01-17T08:13:04.653Z,11.67
2024-01-17T08:16:07.454Z,9.30
2024-01-17T08:19:09.981Z,2.13
2024-01-17T08:22:13.069Z,2.70
2024-01-17T08:25:15.584Z,1.17
2024-01-17T08:28:17.598Z,1.00
2024-01-17T08:31:19.828Z,1.10
2024-01-17T08:34:23.108Z,1.00
2024-01-17T08:37:25.162Z,1.50
2024-01-17T08:40:27.344Z,1.37
2024-01-17T08:43:29.225Z,1.10
2024-01-17T08:46:31.694Z,1.30
2024-01-17T08:49:33.658Z,0.80
2024-01-17T08:52:35.762Z,1.00
2024-01-17T08:55:37.748Z,1.70
2024-01-17T08:58:39.736Z,1.23
2024-01-17T09:01:41.753Z,1.50
2024-01-17T09:04:43.770Z,1.20
2024-01-17T09:07:47.292Z,1.37
2024-01-17T09:10:49.306Z,1.27
2024-01-17T09:13:51.214Z,1.77
2024-01-17T09:16:54.725Z,1.43
2024-01-17T09:19:56.739Z,1.00
2024-01-17T09:22:58.750Z,0.70
2024-01-17T09:26:03.403Z,0.77
2024-01-17T09:29:07.301Z,1.13
2024-01-17T09:32:09.356Z,1.43
2024-01-17T09:35:11.423Z,1.20
2024-01-17T09:38:14.013Z,1.50
2024-01-17T09:41:17.045Z,1.00
2024-01-17T09:44:19.380Z,0.80
2024-01-17T09:47:21.544Z,1.13
2024-01-17T09:50:25.629Z,1.00
2024-01-17T09:53:31.951Z,1.00
2024-01-17T09:56:35.257Z,0.90
2024-01-17T09:59:51.034Z,0.90
2024-01-17T10:02:55.473Z,0.73
2024-01-17T10:05:58.893Z,0.70
2024-01-17T10:09:01.552Z,7.47
2024-01-17T10:12:04.759Z,2.53
2024-01-17T10:15:08.830Z,1.30
2024-01-17T10:18:12.669Z,1.17
2024-01-17T10:21:14.957Z,1.10
2024-01-17T10:24:17.067Z,0.90
2024-01-17T10:27:19.444Z,1.20
2024-01-17T10:30:22.580Z,1.53
2024-01-17T10:33:24.758Z,2.10
2024-01-17T10:36:27.808Z,1.80
2024-01-17T10:39:30.625Z,1.40
2024-01-17T10:42:32.643Z,2.20
2024-01-17T10:45:37.711Z,1.53
2024-01-17T10:48:39.896Z,2.33
2024-01-17T10:51:54.283Z,2.07
2024-01-17T10:55:06.589Z,2.27
2024-01-17T10:58:12.750Z,1.90
2024-01-17T11:01:16.467Z,1.77
2024-01-17T11:04:28.626Z,1.47
2024-01-17T11:07:33.830Z,1.40
2024-01-17T11:10:37.477Z,1.20
2024-01-17T11:13:41.693Z,1.20
2024-01-17T11:16:50.095Z,1.37
2024-01-17T11:19:54.017Z,1.37
2024-01-17T11:22:59.553Z,1.37
2024-01-17T11:26:11.317Z,1.40
2024-01-17T11:29:22.200Z,1.80
2024-01-17T11:32:52.285Z,1.97
2024-01-17T11:35:55.615Z,1.77
2024-01-17T11:38:57.871Z,2.30
2024-01-17T11:42:01.187Z,2.20
2024-01-17T11:45:13.130Z,3.00
2024-01-17T11:48:20.908Z,3.27
2024-01-17T11:51:27.103Z,2.77
2024-01-17T11:54:29.913Z,2.93
2024-01-17T11:57:34.960Z,3.20
2024-01-17T12:00:36.996Z,3.00
2024-01-17T12:03:43.791Z,2.83
2024-01-17T12:06:53.440Z,2.60
2024-01-17T12:09:56.521Z,2.90
2024-01-17T12:13:01.582Z,2.43
2024-01-17T12:16:04.132Z,2.60
2024-01-17T12:19:06.228Z,2.43
2024-01-17T12:22:10.076Z,2.65
2024-01-17T12:25:12.028Z,1.80
2024-01-17T12:28:24.038Z,1.90
2024-01-17T12:31:26.027Z,1.67
2024-01-17T12:34:28.268Z,1.80
2024-01-17T12:37:30.388Z,1.90
2024-01-17T12:40:32.337Z,2.07
2024-01-17T12:43:36.115Z,1.60
2024-01-17T12:46:38.935Z,4.28
2024-01-17T12:49:40.905Z,9.87
2024-01-17T12:52:43.527Z,5.20
2024-01-17T12:57:11.284Z,5.07
2024-01-17T13:00:15.055Z,4.07
2024-01-17T13:03:17.668Z,3.30
2024-01-17T13:06:19.900Z,2.80
2024-01-17T13:09:24.047Z,2.77
2024-01-17T13:12:28.415Z,2.43
2024-01-17T13:15:32.382Z,2.33
2024-01-17T13:18:35.722Z,2.57
2024-01-17T13:21:38.540Z,2.33
2024-01-17T13:24:41.597Z,2.23
2024-01-17T13:27:43.658Z,2.10
2024-01-17T13:30:46.616Z,2.47
2024-01-17T13:33:48.844Z,2.63
2024-01-17T13:36:51.992Z,2.47
2024-01-17T13:39:59.826Z,1.87
2024-01-17T13:43:13.775Z,2.10
2024-01-17T13:47:57.687Z,1.67
2024-01-17T13:50:29.413Z,1.83
2024-01-17T13:53:34.372Z,2.07
2024-01-17T13:56:36.778Z,1.90
2024-01-17T13:59:41.496Z,1.80
2024-01-17T14:02:46.221Z,2.13
2024-01-17T14:05:51.086Z,2.93
2024-01-17T14:08:53.141Z,4.90
2024-01-17T14:11:55.696Z,1.87
2024-01-17T14:14:57.836Z,1.30
2024-01-17T14:18:01.363Z,1.90
2024-01-17T14:21:03.985Z,1.40
2024-01-17T14:24:07.024Z,1.10
2024-01-17T14:27:18.720Z,1.40
2024-01-17T14:30:21.034Z,1.20
2024-01-17T14:33:37.593Z,2.13
2024-01-17T14:40:10.327Z,1.83
2024-01-17T14:43:12.489Z,1.70
2024-01-17T14:46:18.169Z,1.20
2024-01-17T14:49:20.345Z,2.30
2024-01-17T14:52:25.301Z,2.80
2024-01-17T14:55:27.929Z,3.27
2024-01-17T14:58:58.143Z,3.87
2024-01-17T15:02:01.057Z,5.03
2024-01-17T15:05:03.346Z,4.50
2024-01-17T15:08:30.658Z,3.83
2024-01-17T15:11:32.857Z,1.93
2024-01-17T15:14:34.869Z,2.00
2024-01-17T15:17:37.209Z,1.80
2024-01-17T15:20:39.311Z,2.80
2024-01-17T15:23:42.941Z,2.80
2024-01-17T15:26:46.460Z,2.03
2024-01-17T15:29:49.613Z,1.30
2024-01-17T15:32:51.737Z,1.33
2024-01-17T15:35:53.827Z,0.97
2024-01-17T15:39:00.299Z,2.27
2024-01-17T15:42:02.383Z,1.10
2024-01-17T15:45:05.788Z,2.00
2024-01-17T15:48:08.151Z,2.03
2024-01-17T15:51:10.532Z,1.43
2024-01-17T15:54:16.801Z,1.80
2024-01-17T15:57:19.306Z,1.60
2024-01-17T16:00:21.596Z,3.47
2024-01-17T16:03:23.762Z,2.77
2024-01-17T16:06:26.066Z,1.60
2024-01-17T16:09:28.530Z,1.53
2024-01-17T16:12:30.699Z,1.17
2024-01-17T16:15:34.328Z,1.40
2024-01-17T16:18:43.887Z,1.70
2024-01-17T16:21:53.218Z,1.53
2024-01-17T16:24:55.227Z,1.37
2024-01-17T16:27:58.698Z,1.30
2024-01-17T16:31:03.396Z,1.30
2024-01-17T16:34:05.570Z,1.40
2024-01-17T16:37:07.843Z,1.47
2024-01-17T16:40:12.207Z,1.30
2024-01-17T16:43:14.226Z,0.97
2024-01-17T16:46:16.273Z,1.53
2024-01-17T16:49:18.682Z,1.20
2024-01-17T16:52:20.944Z,0.67
2024-01-17T16:55:23.922Z,1.00
2024-01-17T16:58:26.234Z,1.60
2024-01-17T17:01:28.611Z,1.83
2024-01-17T17:04:30.821Z,1.77
2024-01-17T17:07:33.960Z,1.10
2024-01-17T17:10:37.923Z,1.50
2024-01-17T17:13:40.235Z,4.00
2024-01-17T17:16:44.081Z,5.32
2024-01-17T17:19:46.135Z,1.90
2024-01-17T17:22:48.198Z,1.00
2024-01-17T17:25:52.382Z,1.20
2024-01-17T17:28:54.987Z,0.93
2024-01-17T17:32:01.899Z,0.97
2024-01-17T17:35:06.121Z,1.23
2024-01-17T17:38:08.300Z,1.50
2024-01-17T17:41:10.283Z,2.87
2024-01-17T17:44:13.812Z,3.87
2024-01-17T17:47:17.923Z,3.15
2024-01-17T17:50:20.280Z,2.40
2024-01-17T17:53:23.337Z,2.03
2024-01-17T17:56:29.204Z,2.10
2024-01-17T17:59:31.250Z,4.00
2024-01-17T18:02:33.472Z,3.90
2024-01-17T18:05:35.726Z,1.50
2024-01-17T18:09:26.280Z,0.93
2024-01-17T18:12:34.282Z,1.37
2024-01-17T18:15:37.941Z,1.30
2024-01-17T18:18:40.287Z,1.07
2024-01-17T18:21:42.677Z,1.57
2024-01-17T18:24:45.786Z,1.43
2024-01-17T18:27:47.893Z,1.17
2024-01-17T18:30:49.942Z,1.30
2024-01-17T18:33:52.049Z,2.60
2024-01-17T18:36:57.738Z,7.97
2024-01-17T18:40:00.534Z,5.90
2024-01-17T18:43:02.488Z,2.30
2024-01-17T18:46:05.892Z,1.50
2024-01-17T18:49:08.131Z,1.40
2024-01-17T18:52:10.194Z,3.40
2024-01-17T18:55:12.871Z,6.43
2024-01-17T18:58:15.425Z,6.40
2024-01-17T19:01:19.547Z,2.20
2024-01-17T19:04:21.681Z,2.90
2024-01-17T19:07:24.061Z,2.50
2024-01-17T19:10:26.682Z,1.40
2024-01-17T19:13:28.735Z,1.77
2024-01-17T19:16:31.380Z,2.03
2024-01-17T19:19:33.446Z,2.10
2024-01-17T19:22:35.549Z,1.67
2024-01-17T19:25:37.854Z,1.80
2024-01-17T19:28:40.472Z,1.93
2024-01-17T19:31:42.420Z,3.10
2024-01-17T19:34:44.742Z,4.70
2024-01-17T19:37:47.029Z,4.07
2024-01-17T19:40:49.548Z,7.10
2024-01-17T19:43:52.158Z,4.97
2024-01-17T19:46:54.860Z,2.30
2024-01-17T19:49:56.870Z,1.50
2024-01-17T19:52:59.882Z,2.37
2024-01-17T19:56:02.413Z,1.90
2024-01-17T19:59:06.624Z,2.13
2024-01-17T20:02:08.520Z,1.23
2024-01-17T20:05:10.617Z,3.23
2024-01-17T20:08:13.982Z,4.17
2024-01-17T20:11:15.955Z,4.03
2024-01-17T20:14:18.064Z,3.17
2024-01-17T20:17:21.786Z,0.70
2024-01-17T20:20:25.379Z,1.47
2024-01-17T20:23:27.789Z,0.70
2024-01-17T20:26:29.735Z,0.97
2024-01-17T20:29:31.694Z,1.27
2024-01-17T20:32:33.989Z,1.00
2024-01-17T20:35:35.984Z,1.33
2024-01-17T20:38:38.287Z,1.47
2024-01-17T20:41:40.301Z,1.60
2024-01-17T20:44:42.612Z,1.67
2024-01-17T20:47:45.878Z,1.13
2024-01-17T20:50:49.477Z,1.20
2024-01-17T20:53:51.779Z,1.90
2024-01-17T20:56:53.801Z,1.77
2024-01-17T20:59:55.809Z,2.00
2024-01-17T21:03:00.202Z,1.40
2024-01-17T21:06:02.985Z,1.23
2024-01-17T21:09:10.664Z,1.57
2024-01-17T21:12:12.809Z,1.60
2024-01-17T21:15:14.798Z,1.97
2024-01-17T21:18:17.657Z,2.87
2024-01-17T21:21:19.675Z,2.20
2024-01-17T21:24:21.700Z,1.80
2024-01-17T21:27:30.034Z,1.30
2024-01-17T21:30:32.182Z,1.33
2024-01-17T21:33:34.449Z,2.00
2024-01-17T21:36:36.693Z,1.53
2024-01-17T21:39:39.060Z,2.70
2024-01-17T21:42:41.114Z,2.83
2024-01-17T21:45:43.119Z,2.80
2024-01-17T21:48:45.415Z,1.23
2024-01-17T21:51:47.581Z,1.20
2024-01-17T21:54:49.563Z,2.20
2024-01-17T21:57:51.444Z,1.73
2024-01-17T22:00:54.053Z,1.20
2024-01-17T22:03:56.511Z,0.90
2024-01-17T22:06:58.726Z,2.27
2024-01-17T22:10:02.063Z,1.13
2024-01-17T22:13:04.089Z,1.37
2024-01-17T22:16:06.314Z,1.50
2024-01-17T22:19:08.543Z,1.30
2024-01-17T22:22:10.539Z,0.83
2024-01-17T22:25:13.160Z,0.50
2024-01-17T22:28:15.264Z,0.70
2024-01-17T22:31:19.149Z,0.50
2024-01-17T22:34:21.181Z,0.70
2024-01-17T22:37:23.688Z,0.50
2024-01-17T22:40:28.954Z,0.30
2024-01-17T22:43:30.944Z,0.90
2024-01-17T22:46:33.282Z,0.93
2024-01-17T22:49:35.553Z,0.70
2024-01-17T22:52:37.809Z,0.67
2024-01-17T22:55:39.806Z,0.50
2024-01-17T22:58:43.527Z,0.60
2024-01-17T23:01:47.862Z,0.63
2024-01-17T23:04:50.506Z,0.70
2024-01-17T23:11:08.051Z,0.80
2024-01-17T23:14:21.000Z,0.50
2024-01-17T23:17:23.179Z,1.20
2024-01-17T23:20:25.212Z,1.63
2024-01-17T23:23:27.202Z,1.07
2024-01-17T23:26:29.196Z,0.77
2024-01-17T23:29:31.094Z,0.53
2024-01-17T23:32:34.123Z,0.77
2024-01-17T23:35:36.105Z,0.80
2024-01-17T23:38:38.058Z,0.40
2024-01-17T23:41:40.124Z,0.80
2024-01-17T23:44:42.261Z,0.90
2024-01-17T23:47:44.217Z,1.20
2024-01-17T23:50:46.374Z,1.00
2024-01-17T23:53:48.367Z,0.87
2024-01-17T23:56:50.545Z,0.90
2024-01-17T23:59:52.580Z,0.83
